createdAt,value
2023-01-17T00:02:45.409Z,99625.41
2023-01-17T00:06:06.260Z,99619.16
2023-01-17T00:09:30.129Z,99605.59
2023-01-17T00:12:32.384Z,99620.19
2023-01-17T00:15:34.734Z,99626.22
2023-01-17T00:18:36.735Z,99611.66
2023-01-17T00:21:57.484Z,99616.56
2023-01-17T00:25:18.315Z,99607.50
2023-01-17T00:28:20.192Z,99614.25
2023-01-17T00:31:22.343Z,99595.56
2023-01-17T00:34:24.357Z,99599.09
2023-01-17T00:37:26.884Z,99594.56
2023-01-17T00:40:31.653Z,99593.88
2023-01-17T00:43:52.975Z,99613.94
2023-01-17T00:47:14.206Z,99594.56
2023-01-17T00:50:35.545Z,99611.88
2023-01-17T00:53:57.070Z,99597.94
2023-01-17T00:57:17.684Z,99619.81
2023-01-17T01:00:38.533Z,99616.56
2023-01-17T01:03:58.787Z,99624.19
2023-01-17T01:07:19.748Z,99611.09
2023-01-17T01:10:40.559Z,99624.41
2023-01-17T01:14:02.052Z,99612.34
2023-01-17T01:17:23.267Z,99590.84
2023-01-17T01:20:44.251Z,99597.28
2023-01-17T01:24:04.936Z,99612.28
2023-01-17T01:27:25.817Z,99610.97
2023-01-17T01:30:46.581Z,99621.19
2023-01-17T01:33:48.764Z,99606.63
2023-01-17T01:36:50.821Z,99589.06
2023-01-17T01:39:52.809Z,99609.66
2023-01-17T01:42:57.561Z,99615.06
2023-01-17T01:45:59.917Z,99594.72
2023-01-17T01:49:19.378Z,99569.41
2023-01-17T01:52:25.265Z,99622.16
2023-01-17T01:55:38.171Z,99613.84
2023-01-17T01:58:42.123Z,99605.94
2023-01-17T02:01:48.382Z,99605.94
2023-01-17T02:04:53.798Z,99605.06
2023-01-17T02:08:08.722Z,99596.53
2023-01-17T02:11:11.797Z,99599.63
2023-01-17T02:14:20.879Z,99583.25
2023-01-17T02:17:40.753Z,99579.72
2023-01-17T02:21:04.138Z,99570.78
2023-01-17T02:24:31.559Z,99566.84
2023-01-17T02:28:01.191Z,99578.09
2023-01-17T02:31:08.239Z,99563.75
2023-01-17T02:34:20.715Z,99570.38
2023-01-17T02:37:29.122Z,99567.03
2023-01-17T02:40:47.895Z,99561.03
2023-01-17T02:43:52.429Z,99555.41
2023-01-17T02:46:58.075Z,99552.47
2023-01-17T02:50:14.162Z,99547.94
2023-01-17T02:53:27.977Z,99549.59
2023-01-17T02:57:08.571Z,99544.63
2023-01-17T03:00:29.690Z,99538.53
2023-01-17T03:03:50.621Z,99535.41
2023-01-17T03:06:59.935Z,99538.34
2023-01-17T03:10:05.112Z,99540.66
2023-01-17T03:13:07.346Z,99545.66
2023-01-17T03:16:22.102Z,99545.44
2023-01-17T03:19:25.471Z,99539.06
2023-01-17T03:22:27.618Z,99532.88
2023-01-17T03:25:29.772Z,99533.47
2023-01-17T03:28:32.807Z,99543.03
2023-01-17T03:31:34.807Z,99537.47
2023-01-17T03:34:36.919Z,99549.09
2023-01-17T03:37:39.026Z,99549.53
2023-01-17T03:40:42.008Z,99555.75
2023-01-17T03:43:44.114Z,99541.63
2023-01-17T03:46:46.263Z,99560.34
2023-01-17T03:49:49.079Z,99565.50
2023-01-17T03:52:51.601Z,99534.56
2023-01-17T03:55:53.740Z,99543.03
2023-01-17T03:58:58.615Z,99520.63
2023-01-17T04:02:01.801Z,99523.50
2023-01-17T04:05:04.575Z,99521.44
2023-01-17T04:08:07.379Z,99524.72
2023-01-17T04:11:10.554Z,99526.63
2023-01-17T04:14:13.641Z,99538.94
2023-01-17T04:17:19.916Z,99536.44
2023-01-17T04:20:32.419Z,99524.25
2023-01-17T04:23:36.212Z,99547.25
2023-01-17T04:26:38.236Z,99545.88
2023-01-17T04:29:41.283Z,99540.56
2023-01-17T04:32:43.415Z,99547.34
2023-01-17T04:35:45.528Z,99548.75
2023-01-17T04:38:47.600Z,99552.53
2023-01-17T04:41:49.691Z,99553.88
2023-01-17T04:44:54.671Z,99545.63
2023-01-17T04:47:56.701Z,99558.84
2023-01-17T04:51:02.964Z,99553.22
2023-01-17T04:54:05.145Z,99537.03
2023-01-17T04:57:07.377Z,99527.78
2023-01-17T05:00:12.729Z,99533.63
2023-01-17T05:03:44.101Z,99543.91
2023-01-17T05:06:51.454Z,99540.72
2023-01-17T05:09:53.711Z,99542.59
2023-01-17T05:12:58.729Z,99526.28
2023-01-17T05:16:01.190Z,99538.03
2023-01-17T05:19:03.789Z,99534.16
2023-01-17T05:22:16.253Z,99561.59
2023-01-17T05:25:20.169Z,99563.94
2023-01-17T05:28:22.278Z,99581.00
2023-01-17T05:31:24.723Z,99549.19
2023-01-17T05:34:27.406Z,99549.09
2023-01-17T05:37:29.847Z,99524.88
2023-01-17T05:40:33.756Z,99534.31
2023-01-17T05:43:35.997Z,99555.81
2023-01-17T05:46:41.021Z,99552.16
2023-01-17T05:49:45.845Z,99553.44
2023-01-17T05:53:04.380Z,99541.72
2023-01-17T05:56:07.496Z,99536.63
2023-01-17T05:59:10.786Z,99505.28
2023-01-17T06:02:13.711Z,99519.84
2023-01-17T06:05:16.697Z,99528.91
2023-01-17T06:08:20.186Z,99514.31
2023-01-17T06:11:22.206Z,99530.34
2023-01-17T06:14:24.210Z,99523.59
2023-01-17T06:17:26.255Z,99525.69
2023-01-17T06:20:28.688Z,99528.53
2023-01-17T06:23:30.893Z,99523.16
2023-01-17T06:26:33.708Z,99522.06
2023-01-17T06:29:35.756Z,99532.09
2023-01-17T06:32:37.903Z,99530.50
2023-01-17T06:35:41.483Z,99527.06
2023-01-17T06:38:46.483Z,99530.25
2023-01-17T06:41:48.421Z,99537.34
2023-01-17T06:44:53.422Z,99509.06
2023-01-17T06:47:57.281Z,99512.31
2023-01-17T06:51:00.731Z,99472.94
2023-01-17T06:54:04.542Z,99484.66
2023-01-17T06:57:09.665Z,99492.34
2023-01-17T07:00:12.431Z,99496.19
2023-01-17T07:03:40.414Z,99493.34
2023-01-17T07:06:42.946Z,99483.53
2023-01-17T07:09:46.344Z,99468.31
2023-01-17T07:12:51.888Z,99496.28
2023-01-17T07:15:56.184Z,99488.19
2023-01-17T07:19:02.443Z,99467.63
2023-01-17T07:22:05.677Z,99474.41
2023-01-17T07:25:09.435Z,99467.53
2023-01-17T07:28:13.607Z,99465.34
2023-01-17T07:31:19.905Z,99464.97
2023-01-17T07:34:25.472Z,99454.34
2023-01-17T07:37:28.379Z,99462.53
2023-01-17T07:40:31.171Z,99467.56
2023-01-17T07:43:35.879Z,99450.78
2023-01-17T07:46:37.939Z,99461.41
2023-01-17T07:49:41.015Z,99458.22
2023-01-17T07:52:48.907Z,99466.97
2023-01-17T07:55:52.351Z,99471.69
2023-01-17T07:58:57.572Z,99472.84
2023-01-17T08:02:00.703Z,99463.59
2023-01-17T08:05:05.120Z,99480.88
2023-01-17T08:08:07.992Z,99473.34
2023-01-17T08:11:10.823Z,99464.31
2023-01-17T08:14:14.020Z,99468.63
2023-01-17T08:17:21.995Z,99459.50
2023-01-17T08:23:48.895Z,99460.31
2023-01-17T08:26:55.738Z,99458.88
2023-01-17T08:29:59.996Z,99458.66
2023-01-17T08:33:02.165Z,99460.31
2023-01-17T08:36:04.787Z,99461.41
2023-01-17T08:39:06.915Z,99451.59
2023-01-17T08:42:09.562Z,99452.91
2023-01-17T08:45:15.348Z,99450.19
2023-01-17T08:48:23.251Z,99427.94
2023-01-17T08:51:27.336Z,99427.41
2023-01-17T08:54:33.874Z,99405.16
2023-01-17T08:57:36.550Z,99424.72
2023-01-17T09:00:41.176Z,99433.88
2023-01-17T09:03:43.459Z,99439.78
2023-01-17T09:06:47.504Z,99416.03
2023-01-17T09:09:49.796Z,99429.13
2023-01-17T09:12:54.354Z,99426.72
2023-01-17T09:16:05.413Z,99434.66
2023-01-17T09:19:07.567Z,99418.41
2023-01-17T09:22:54.020Z,99411.84
2023-01-17T09:26:04.230Z,99416.50
2023-01-17T09:29:08.506Z,99408.31
2023-01-17T09:32:12.420Z,99409.06
2023-01-17T09:35:14.835Z,99393.97
2023-01-17T09:38:19.119Z,99394.81
2023-01-17T09:41:29.960Z,99386.50
2023-01-17T09:44:45.365Z,99382.19
2023-01-17T09:47:52.836Z,99374.38
2023-01-17T09:51:13.132Z,99347.88
2023-01-17T09:54:25.062Z,99367.06
2023-01-17T09:57:40.633Z,99377.59
2023-01-17T10:01:13.372Z,99374.88
2023-01-17T10:05:04.103Z,99361.47
2023-01-17T10:08:21.297Z,99371.13
2023-01-17T10:11:32.221Z,99373.66
2023-01-17T10:14:49.136Z,99375.53
2023-01-17T10:18:28.928Z,99360.69
2023-01-17T10:22:02.812Z,99375.47
2023-01-17T10:25:32.083Z,99381.34
2023-01-17T10:32:11.124Z,99373.38
2023-01-17T10:35:29.943Z,99385.38
2023-01-17T10:38:36.401Z,99378.50
2023-01-17T10:41:44.825Z,99386.03
2023-01-17T10:45:03.182Z,99385.03
2023-01-17T10:48:45.229Z,99377.81
2023-01-17T10:52:02.801Z,99383.63
2023-01-17T10:55:14.433Z,99385.22
2023-01-17T10:58:19.995Z,99386.22
2023-01-17T11:01:26.445Z,99388.13
2023-01-17T11:04:37.190Z,99370.88
2023-01-17T11:07:58.262Z,99376.47
2023-01-17T11:11:06.916Z,99370.63
2023-01-17T11:14:19.787Z,99360.16
2023-01-17T11:17:22.824Z,99358.66
2023-01-17T11:20:40.985Z,99344.44
2023-01-17T11:23:45.911Z,99361.94
2023-01-17T11:26:50.012Z,99352.75
2023-01-17T11:30:20.145Z,99361.41
2023-01-17T11:33:58.001Z,99376.38
2023-01-17T11:37:20.550Z,99373.97
2023-01-17T11:40:38.699Z,99363.75
2023-01-17T11:43:59.277Z,99350.06
2023-01-17T11:47:19.444Z,99376.13
2023-01-17T11:50:35.666Z,99364.09
2023-01-17T11:53:46.993Z,99374.41
2023-01-17T11:56:53.269Z,99376.22
2023-01-17T12:00:27.615Z,99377.28
2023-01-17T12:03:49.457Z,99385.78
2023-01-17T12:06:58.620Z,99387.59
2023-01-17T12:10:07.378Z,99382.19
2023-01-17T12:13:45.534Z,99386.59
2023-01-17T12:17:14.165Z,99398.94
2023-01-17T12:20:30.889Z,99409.59
2023-01-17T12:24:22.159Z,99407.13
2023-01-17T12:27:50.031Z,99416.34
2023-01-17T12:31:13.630Z,99412.94
2023-01-17T12:34:30.356Z,99410.22
2023-01-17T12:37:43.412Z,99423.00
2023-01-17T12:41:01.103Z,99416.16
2023-01-17T12:44:03.183Z,99418.78
2023-01-17T12:47:06.196Z,99415.50
2023-01-17T12:50:27.057Z,99423.31
2023-01-17T12:53:41.046Z,99420.25
2023-01-17T12:56:51.484Z,99419.03
2023-01-17T13:00:08.472Z,99405.19
2023-01-17T13:03:58.325Z,99390.91
2023-01-17T13:07:00.659Z,99391.03
2023-01-17T13:10:19.369Z,99397.00
2023-01-17T13:13:26.711Z,99409.16
2023-01-17T13:16:54.811Z,99393.84
2023-01-17T13:20:03.962Z,99398.94
2023-01-17T13:23:30.790Z,99403.56
2023-01-17T13:26:51.136Z,99395.41
2023-01-17T13:30:36.754Z,99391.00
2023-01-17T13:33:53.856Z,99403.31
2023-01-17T13:36:58.828Z,99412.88
2023-01-17T13:40:22.694Z,99423.50
2023-01-17T13:43:30.591Z,99399.63
2023-01-17T13:46:55.745Z,99408.13
2023-01-17T13:49:58.493Z,99398.25
2023-01-17T13:53:00.891Z,99409.22
2023-01-17T13:56:10.970Z,99414.41
2023-01-17T13:59:35.398Z,99417.50
2023-01-17T14:02:40.609Z,99415.00
2023-01-17T14:09:44.054Z,99415.00
2023-01-17T14:12:49.795Z,99407.09
2023-01-17T14:15:52.406Z,99422.56
2023-01-17T14:18:55.937Z,99434.63
2023-01-17T14:22:22.677Z,99434.25
2023-01-17T14:25:28.756Z,99423.03
2023-01-17T14:28:33.037Z,99427.44
2023-01-17T14:31:35.912Z,99415.06
2023-01-17T14:34:38.226Z,99427.44
2023-01-17T14:37:52.213Z,99436.91
2023-01-17T14:40:58.773Z,99446.59
2023-01-17T14:44:03.255Z,99439.66
2023-01-17T14:47:05.882Z,99449.78
2023-01-17T14:50:21.697Z,99455.22
2023-01-17T14:53:28.825Z,99463.88
2023-01-17T14:56:32.078Z,99460.94
2023-01-17T14:59:35.529Z,99464.16
2023-01-17T15:02:44.983Z,99454.78
2023-01-17T15:05:51.401Z,99457.72
2023-01-17T15:08:54.342Z,99471.72
2023-01-17T15:12:04.769Z,99462.84
2023-01-17T15:15:35.519Z,99483.00
2023-01-17T15:18:42.657Z,99465.25
2023-01-17T15:21:51.586Z,99473.84
2023-01-17T15:24:56.180Z,99476.75
2023-01-17T15:27:58.525Z,99503.47
2023-01-17T15:31:13.730Z,99528.38
2023-01-17T15:34:34.761Z,99548.53
2023-01-17T15:37:43.143Z,99527.28
2023-01-17T15:40:47.586Z,99509.94
2023-01-17T15:43:52.596Z,99513.50
2023-01-17T15:46:55.407Z,99509.19
2023-01-17T15:49:58.297Z,99525.66
2023-01-17T15:53:28.526Z,99545.53
2023-01-17T15:56:33.225Z,99563.47
2023-01-17T15:59:55.956Z,99570.22
2023-01-17T16:02:59.744Z,99570.84
2023-01-17T16:06:03.283Z,99571.25
2023-01-17T16:09:21.059Z,99576.34
2023-01-17T16:12:23.741Z,99558.28
2023-01-17T16:15:27.371Z,99553.94
2023-01-17T16:18:30.621Z,99550.34
2023-01-17T16:21:33.005Z,99538.91
2023-01-17T16:24:45.353Z,99564.44
2023-01-17T16:27:53.199Z,99566.09
2023-01-17T16:30:55.907Z,99578.13
2023-01-17T16:33:59.700Z,99589.38
2023-01-17T16:37:04.527Z,99575.69
2023-01-17T16:40:07.264Z,99589.19
2023-01-17T16:43:12.483Z,99594.81
2023-01-17T16:46:15.665Z,99601.78
2023-01-17T16:49:18.863Z,99601.09
2023-01-17T16:52:20.927Z,99602.16
2023-01-17T16:55:25.312Z,99611.28
2023-01-17T16:58:27.349Z,99603.47
2023-01-17T17:01:30.189Z,99604.75
2023-01-17T17:04:33.243Z,99600.97
2023-01-17T17:07:46.374Z,99614.53
2023-01-17T17:10:48.451Z,99623.28
2023-01-17T17:13:57.443Z,99630.63
2023-01-17T17:17:08.601Z,99622.00
2023-01-17T17:20:14.739Z,99615.75
2023-01-17T17:23:16.787Z,99609.94
2023-01-17T17:26:18.937Z,99612.09
2023-01-17T17:29:21.255Z,99625.09
2023-01-17T17:32:26.962Z,99609.38
2023-01-17T17:35:28.924Z,99603.91
2023-01-17T17:38:35.224Z,99615.06
2023-01-17T17:41:40.750Z,99621.09
2023-01-17T17:44:42.939Z,99627.69
2023-01-17T17:47:45.197Z,99624.13
2023-01-17T17:50:58.822Z,99622.94
2023-01-17T17:54:08.036Z,99608.91
2023-01-17T17:57:12.543Z,99611.50
2023-01-17T18:00:18.824Z,99632.78
2023-01-17T18:03:21.020Z,99673.69
2023-01-17T18:06:25.357Z,99665.66
2023-01-17T18:09:29.159Z,99627.19
2023-01-17T18:12:33.839Z,99622.72
2023-01-17T18:15:49.942Z,99598.63
2023-01-17T18:18:55.256Z,99605.06
2023-01-17T18:21:58.335Z,99609.97
2023-01-17T18:25:02.379Z,99602.09
2023-01-17T18:31:25.736Z,99617.47
2023-01-17T18:34:29.497Z,99633.72
2023-01-17T18:37:31.615Z,99612.41
2023-01-17T18:40:36.147Z,99618.97
2023-01-17T18:43:38.693Z,99624.22
2023-01-17T18:46:46.339Z,99630.06
2023-01-17T18:49:53.870Z,99622.31
2023-01-17T18:52:56.503Z,99617.78
2023-01-17T18:56:02.879Z,99621.88
2023-01-17T18:59:06.933Z,99634.63
2023-01-17T19:02:09.655Z,99623.91
2023-01-17T19:05:15.671Z,99630.91
2023-01-17T19:08:17.795Z,99635.38
2023-01-17T19:11:21.391Z,99627.44
2023-01-17T19:14:23.459Z,99638.19
2023-01-17T19:17:25.519Z,99643.28
2023-01-17T19:20:27.715Z,99637.16
2023-01-17T19:23:35.756Z,99626.97
2023-01-17T19:26:38.067Z,99623.09
2023-01-17T19:29:42.905Z,99628.78
2023-01-17T19:32:52.230Z,99633.50
2023-01-17T19:35:58.968Z,99638.22
2023-01-17T19:39:06.263Z,99654.31
2023-01-17T19:42:15.615Z,99664.97
2023-01-17T19:45:17.856Z,99648.41
2023-01-17T19:48:20.353Z,99648.75
2023-01-17T19:51:24.137Z,99670.75
2023-01-17T19:54:26.292Z,99666.25
2023-01-17T19:57:34.961Z,99665.28
2023-01-17T20:00:46.137Z,99648.84
2023-01-17T20:03:51.685Z,99662.81
2023-01-17T20:06:54.322Z,99676.88
2023-01-17T20:09:56.540Z,99667.31
2023-01-17T20:12:59.109Z,99673.34
2023-01-17T20:16:05.376Z,99670.28
2023-01-17T20:19:08.615Z,99648.63
2023-01-17T20:22:11.177Z,99652.16
2023-01-17T20:25:13.286Z,99653.00
2023-01-17T20:28:15.432Z,99643.78
2023-01-17T20:31:23.054Z,99632.19
2023-01-17T20:34:30.352Z,99617.31
2023-01-17T20:37:32.600Z,99628.75
2023-01-17T20:40:39.591Z,99609.22
2023-01-17T20:43:43.238Z,99624.31
2023-01-17T20:46:48.092Z,99619.16
2023-01-17T20:49:53.643Z,99627.53
2023-01-17T20:52:56.706Z,99610.25
2023-01-17T20:55:59.206Z,99611.91
2023-01-17T20:59:03.799Z,99597.25
2023-01-17T21:02:06.772Z,99600.66
2023-01-17T21:05:13.492Z,99613.38
2023-01-17T21:08:18.606Z,99632.53
2023-01-17T21:11:24.040Z,99614.59
2023-01-17T21:14:32.074Z,99590.88
2023-01-17T21:17:36.129Z,99611.75
2023-01-17T21:20:38.802Z,99595.84
2023-01-17T21:23:42.600Z,99605.50
2023-01-17T21:26:47.410Z,99596.34
2023-01-17T21:29:49.439Z,99599.50
2023-01-17T21:32:51.528Z,99592.88
2023-01-17T21:35:53.652Z,99597.47
2023-01-17T21:39:00.049Z,99578.50
2023-01-17T21:42:02.475Z,99566.22
2023-01-17T21:45:06.490Z,99563.75
2023-01-17T21:48:14.732Z,99568.09
2023-01-17T21:51:17.107Z,99564.44
2023-01-17T21:54:47.474Z,99550.25
2023-01-17T21:58:08.910Z,99548.91
2023-01-17T22:01:21.757Z,99555.59
2023-01-17T22:04:25.928Z,99555.16
2023-01-17T22:07:30.539Z,99558.16
2023-01-17T22:10:33.447Z,99550.69
2023-01-17T22:13:36.426Z,99546.56
2023-01-17T22:16:41.019Z,99553.41
2023-01-17T22:19:43.395Z,99542.25
2023-01-17T22:22:47.518Z,99530.97
2023-01-17T22:25:50.903Z,99509.59
2023-01-17T22:28:53.614Z,99511.94
2023-01-17T22:32:00.974Z,99502.69
2023-01-17T22:35:06.704Z,99497.41
2023-01-17T22:38:16.293Z,99498.69
2023-01-17T22:41:30.044Z,99506.72
2023-01-17T22:44:32.377Z,99489.94
2023-01-17T22:47:35.522Z,99506.88
2023-01-17T22:50:37.841Z,99496.50
2023-01-17T22:53:47.420Z,99499.72
2023-01-17T22:56:49.628Z,99493.47
2023-01-17T22:59:53.220Z,99474.44
2023-01-17T23:02:57.258Z,99472.88
2023-01-17T23:06:16.847Z,99472.19
2023-01-17T23:09:21.167Z,99474.81
2023-01-17T23:12:23.264Z,99465.31
2023-01-17T23:15:44.050Z,99455.41
2023-01-17T23:19:04.836Z,99450.44
2023-01-17T23:22:19.438Z,99455.25
2023-01-17T23:25:22.547Z,99445.78
2023-01-17T23:28:25.575Z,99445.97
2023-01-17T23:31:30.232Z,99451.25
2023-01-17T23:34:32.555Z,99443.16
2023-01-17T23:37:53.589Z,99434.06
2023-01-17T23:41:26.981Z,99434.94
2023-01-17T23:44:31.971Z,99435.47
2023-01-17T23:47:34.092Z,99446.66
2023-01-17T23:50:44.337Z,99461.41
2023-01-17T23:53:46.453Z,99471.50
2023-01-17T23:56:51.264Z,99462.00
2023-01-17T23:59:55.044Z,99469.72
